Time;durP1;ratioP1;P1;durP2;ratioP2;P2;SDS_P1;SDS_P2;PMS_P1;PMS_P2;Temp;Humidity;BMP_temperature;BMP_pressure;BME280_temperature;BME280_humidity;BME280_pressure;Samples;Min_cycle;Max_cycle;Signal;HPM_P1;HPM_P2
2022/05/16 00:00:40;;;;;;;;;;;;;;;10.99;100.00;99303.32;1666610;86;20414;-73
2022/05/16 00:03:07;;;;;;;;;;;;;;;10.98;100.00;99303.02;1666636;86;20114;-72
2022/05/16 00:05:34;;;;;;;;;;;;;;;10.98;100.00;99301.66;1666680;86;20183;-73
2022/05/16 00:08:03;;;;;;;;;;;;;;;10.96;100.00;99297.80;1666585;83;20117;-73
2022/05/16 00:10:30;;;;;;;;;;;;;;;10.95;100.00;99303.39;1666564;86;20113;-73
2022/05/16 00:12:59;;;;;;;;;;;;;;;10.91;100.00;99307.52;1645551;86;20172;-71
2022/05/16 00:15:28;;;;;;;;;;;;;;;10.88;100.00;99303.84;1666502;86;20463;-71
2022/05/16 00:17:54;;;;;;;;;;;;;;;10.85;100.00;99306.39;1666897;86;20097;-71
2022/05/16 00:20:21;;;;;;;;;;;;;;;10.81;100.00;99305.11;1666682;86;20130;-71
2022/05/16 00:22:50;;;;;;;;;;;;;;;10.78;100.00;99305.48;1666535;86;20130;-73
2022/05/16 00:25:17;;;;;;;;;;;;;;;10.74;100.00;99300.97;1667065;85;20138;-73
2022/05/16 00:27:44;;;;;;;;;;;;;;;10.72;100.00;99299.50;1669502;85;20113;-73
2022/05/16 00:30:13;;;;;;;;;;;;;;;10.67;100.00;99305.45;1666892;86;20106;-72
2022/05/16 00:32:40;;;;;;;;;;;;;;;10.62;100.00;99299.78;1666693;86;20114;-71
2022/05/16 00:35:09;;;;;;;;;;;;;;;10.56;100.00;99302.73;1666404;86;20177;-72
2022/05/16 00:37:36;;;;;;;;;;;;;;;10.49;100.00;99301.81;1666762;86;20121;-72
2022/05/16 00:40:04;;;;;;;;;;;;;;;10.43;100.00;99299.36;1666641;86;20133;-71
2022/05/16 00:42:31;;;;;;;;;;;;;;;10.39;100.00;99294.50;1666647;86;20106;-72
2022/05/16 00:44:58;;;;;;;;;;;;;;;10.32;100.00;99287.66;1666802;85;20106;-72
2022/05/16 00:47:25;;;;;;;;;;;;;;;10.25;100.00;99284.86;1666759;86;20405;-72
2022/05/16 00:49:52;;;;;;;;;;;;;;;10.20;100.00;99284.58;1666390;86;20154;-71
2022/05/16 00:52:21;;;;;;;;;;;;;;;10.16;100.00;99284.60;1666598;85;20105;-73
2022/05/16 00:54:51;;;;;;;;;;;;;;;10.13;100.00;99286.35;1666711;86;20130;-71
2022/05/16 00:57:21;;;;;;;;;;;;;;;10.11;100.00;99294.30;1666683;84;20130;-72
2022/05/16 01:00:03;;;;;;;;;;;;;;;10.07;100.00;99283.03;1666758;86;20117;-71
2022/05/16 01:05:17;;;;;;;;;;;;;;;10.04;100.00;99274.80;1666805;86;20114;-71
2022/05/16 01:07:44;;;;;;;;;;;;;;;10.05;100.00;99268.87;1670663;84;20132;-72
2022/05/16 01:10:16;;;;;;;;;;;;;;;10.06;100.00;99265.16;1681538;85;20136;-72
2022/05/16 01:12:45;;;;;;;;;;;;;;;10.06;100.00;99259.23;1681715;84;20120;-71
2022/05/16 01:15:15;;;;;;;;;;;;;;;10.08;100.00;99264.46;1681526;85;20120;-71
2022/05/16 01:17:42;;;;;;;;;;;;;;;10.07;100.00;99264.13;1681521;84;20412;-71
2022/05/16 01:20:09;;;;;;;;;;;;;;;10.07;100.00;99269.52;1681527;84;20104;-73
2022/05/16 01:22:42;;;;;;;;;;;;;;;10.05;100.00;99266.17;1681687;84;20136;-72
2022/05/16 01:25:18;;;;;;;;;;;;;;;10.04;100.00;99271.27;1681324;84;20421;-73
2022/05/16 01:27:51;;;;;;;;;;;;;;;10.02;100.00;99280.91;1652114;87;20141;-71
2022/05/16 01:30:21;;;;;;;;;;;;;;;10.00;100.00;99290.20;1624374;88;20134;-72
2022/05/16 01:32:48;;;;;;;;;;;;;;;9.96;100.00;99292.95;1693522;85;20428;-72
2022/05/16 01:35:20;;;;;;;;;;;;;;;9.94;100.00;99303.11;1698717;85;20135;-70
2022/05/16 01:40:32;;;;;;;;;;;;;;;9.90;100.00;99295.89;1669403;86;20181;-71
2022/05/16 01:42:58;;;;;;;;;;;;;;;9.86;100.00;99293.21;1669243;86;20383;-72
2022/05/16 01:45:25;;;;;;;;;;;;;;;9.86;100.00;99295.42;1669226;86;20106;-71
2022/05/16 01:47:52;;;;;;;;;;;;;;;9.88;100.00;99295.24;1669249;86;20140;-72
2022/05/16 01:50:21;;;;;;;;;;;;;;;9.87;100.00;99297.08;1669393;86;20105;-71
2022/05/16 01:52:47;;;;;;;;;;;;;;;9.90;100.00;99297.24;1669189;86;20105;-72
2022/05/16 01:55:14;;;;;;;;;;;;;;;9.91;100.00;99292.67;1669193;86;20418;-72
2022/05/16 01:57:43;;;;;;;;;;;;;;;9.93;100.00;99294.14;1669052;86;20146;-72
2022/05/16 02:00:11;;;;;;;;;;;;;;;9.94;100.00;99306.64;1669144;86;20110;-71
2022/05/16 02:02:42;;;;;;;;;;;;;;;9.94;100.00;99302.59;1669095;86;20166;-71
2022/05/16 02:05:10;;;;;;;;;;;;;;;9.93;100.00;99302.77;1668992;86;20110;-73
2022/05/16 02:07:37;;;;;;;;;;;;;;;9.91;100.00;99319.67;1667232;86;20141;-73
2022/05/16 02:10:06;;;;;;;;;;;;;;;9.88;100.00;99319.02;1654561;87;20162;-72
2022/05/16 02:12:34;;;;;;;;;;;;;;;9.88;100.00;99320.89;1654716;87;20134;-71
2022/05/16 02:15:02;;;;;;;;;;;;;;;9.87;100.00;99326.78;1655569;87;20087;-72
2022/05/16 02:17:29;;;;;;;;;;;;;;;9.89;100.00;99317.98;1657135;87;20107;-73
2022/05/16 02:19:55;;;;;;;;;;;;;;;9.94;100.00;99324.71;1654686;87;20166;-73
2022/05/16 02:25:07;;;;;;;;;;;;;;;10.02;100.00;99321.42;1648020;86;20117;-72
2022/05/16 02:27:36;;;;;;;;;;;;;;;10.07;100.00;99328.45;1646610;87;20139;-72
2022/05/16 02:30:05;;;;;;;;;;;;;;;10.12;100.00;99325.18;1675627;86;20146;-74
2022/05/16 02:32:32;;;;;;;;;;;;;;;10.16;100.00;99325.13;1598624;89;20537;-71
2022/05/16 02:34:59;;;;;;;;;;;;;;;10.20;100.00;99333.20;1687332;84;20099;-72
2022/05/16 02:37:26;;;;;;;;;;;;;;;10.25;100.00;99338.89;1701387;84;20095;-72
2022/05/16 02:39:53;;;;;;;;;;;;;;;10.28;100.00;99340.38;1701016;84;20107;-71
2022/05/16 02:42:20;;;;;;;;;;;;;;;10.31;100.00;99344.58;1701245;84;20103;-73
2022/05/16 02:44:47;;;;;;;;;;;;;;;10.33;100.00;99350.66;1701153;84;20111;-72
2022/05/16 02:47:15;;;;;;;;;;;;;;;10.34;100.00;99353.19;1701025;84;20171;-72
2022/05/16 02:49:44;;;;;;;;;;;;;;;10.37;100.00;99358.20;1728698;82;20136;-72
2022/05/16 02:52:11;;;;;;;;;;;;;;;10.40;100.00;99358.35;1728631;83;20108;-72
2022/05/16 02:54:38;;;;;;;;;;;;;;;10.42;100.00;99365.75;1728841;83;20152;-72
2022/05/16 02:57:05;;;;;;;;;;;;;;;10.44;100.00;99367.23;1728766;83;20393;-70
2022/05/16 02:59:33;;;;;;;;;;;;;;;10.46;100.00;99377.86;1728897;83;20483;-73
2022/05/16 03:02:00;;;;;;;;;;;;;;;10.49;100.00;99385.61;1728766;83;20125;-73
2022/05/16 03:04:28;;;;;;;;;;;;;;;10.52;100.00;99391.17;1728379;83;20414;-72
2022/05/16 03:06:55;;;;;;;;;;;;;;;10.53;100.00;99401.77;1728825;83;20133;-73
2022/05/16 03:09:22;;;;;;;;;;;;;;;10.56;100.00;99404.11;1722413;82;20101;-73
2022/05/16 03:11:49;;;;;;;;;;;;;;;10.58;100.00;99420.14;1720160;83;20141;-72
2022/05/16 03:14:16;;;;;;;;;;;;;;;10.61;100.00;99430.59;1720243;83;20133;-72
2022/05/16 03:16:42;;;;;;;;;;;;;;;10.63;100.00;99436.13;1698382;85;20118;-73
2022/05/16 03:19:09;;;;;;;;;;;;;;;10.65;100.00;99442.70;1698377;84;20127;-73
2022/05/16 03:21:36;;;;;;;;;;;;;;;10.67;100.00;99451.46;1680486;85;20408;-72
2022/05/16 03:24:04;;;;;;;;;;;;;;;10.69;100.00;99454.81;1698433;84;20135;-73
2022/05/16 03:26:31;;;;;;;;;;;;;;;10.73;100.00;99455.28;1698026;85;20103;-72
2022/05/16 03:28:58;;;;;;;;;;;;;;;10.76;100.00;99467.08;1698473;84;20161;-72
2022/05/16 03:31:25;;;;;;;;;;;;;;;10.80;100.00;99480.06;1698336;84;20111;-72
2022/05/16 03:33:53;;;;;;;;;;;;;;;10.84;100.00;99488.64;1698320;85;20122;-72
2022/05/16 03:36:19;;;;;;;;;;;;;;;10.86;100.00;99486.58;1698280;83;20411;-72
2022/05/16 03:41:33;;;;;;;;;;;;;;;10.94;100.00;99510.84;1698031;84;20115;-72
2022/05/16 03:44:00;;;;;;;;;;;;;;;10.99;100.00;99517.86;1698315;83;20134;-71
2022/05/16 03:46:29;;;;;;;;;;;;;;;11.05;100.00;99524.91;1697932;85;20146;-73
2022/05/16 03:48:56;;;;;;;;;;;;;;;11.11;100.00;99528.23;1698196;83;20103;-71
2022/05/16 03:51:22;;;;;;;;;;;;;;;11.16;100.00;99534.76;1698282;83;20119;-72
2022/05/16 03:53:50;;;;;;;;;;;;;;;11.22;100.00;99538.58;1698014;84;20119;-71
2022/05/16 03:56:22;;;;;;;;;;;;;;;11.29;100.00;99543.56;1698324;85;20108;-72
2022/05/16 03:58:49;;;;;;;;;;;;;;;11.36;100.00;99546.36;1698297;85;20127;-72
2022/05/16 04:01:16;;;;;;;;;;;;;;;11.40;100.00;99555.28;1698260;83;20451;-73
2022/05/16 04:03:43;;;;;;;;;;;;;;;11.46;100.00;99563.16;1698051;84;20107;-73
2022/05/16 04:06:10;;;;;;;;;;;;;;;11.51;100.00;99579.68;1699777;84;20115;-72
2022/05/16 04:08:39;;;;;;;;;;;;;;;11.57;100.00;99588.39;1698172;84;20116;-72
2022/05/16 04:11:05;;;;;;;;;;;;;;;11.66;100.00;99592.36;1698436;84;20112;-73
2022/05/16 04:13:33;;;;;;;;;;;;;;;11.74;100.00;99601.74;1698035;85;20158;-73
2022/05/16 04:16:00;;;;;;;;;;;;;;;11.81;100.00;99610.79;1697949;84;20138;-73
2022/05/16 04:18:26;;;;;;;;;;;;;;;11.90;100.00;99629.99;1698261;85;20096;-73
2022/05/16 04:20:54;;;;;;;;;;;;;;;12.00;100.00;99635.09;1698062;85;20130;-72
2022/05/16 04:23:21;;;;;;;;;;;;;;;12.09;100.00;99640.75;1697908;85;20099;-73
2022/05/16 04:25:48;;;;;;;;;;;;;;;12.21;100.00;99653.80;1698320;83;20103;-71
2022/05/16 04:28:14;;;;;;;;;;;;;;;12.36;100.00;99664.09;1698414;84;20107;-73
2022/05/16 04:30:42;;;;;;;;;;;;;;;12.50;100.00;99684.03;1698372;84;20115;-72
2022/05/16 04:33:09;;;;;;;;;;;;;;;12.65;100.00;99689.41;1698325;84;20112;-72
2022/05/16 04:35:37;;;;;;;;;;;;;;;12.79;100.00;99704.79;1680076;85;20136;-74
2022/05/16 04:38:04;;;;;;;;;;;;;;;12.97;100.00;99712.99;1698353;85;20143;-72
2022/05/16 04:40:31;;;;;;;;;;;;;;;13.16;100.00;99726.43;1698392;83;20115;-71
2022/05/16 04:42:58;;;;;;;;;;;;;;;13.34;100.00;99740.91;1698563;84;20115;-74
2022/05/16 04:45:27;;;;;;;;;;;;;;;13.43;100.00;99775.86;1698566;84;20111;-75
2022/05/16 04:47:56;;;;;;;;;;;;;;;13.52;100.00;99787.42;1698334;84;20115;-75
2022/05/16 04:50:27;;;;;;;;;;;;;;;13.62;100.00;99812.91;1698532;84;20118;-75
2022/05/16 04:52:54;;;;;;;;;;;;;;;13.69;100.00;99824.67;1698533;84;20140;-74
2022/05/16 04:55:21;;;;;;;;;;;;;;;13.80;100.00;99836.35;1698452;84;20107;-75
2022/05/16 04:57:50;;;;;;;;;;;;;;;13.90;100.00;99840.59;1698444;85;20111;-74
2022/05/16 05:00:18;;;;;;;;;;;;;;;14.03;100.00;99856.48;1698256;83;20131;-73
2022/05/16 05:02:46;;;;;;;;;;;;;;;14.22;100.00;99860.92;1698308;83;20104;-73
2022/05/16 05:05:13;;;;;;;;;;;;;;;14.41;100.00;99863.41;1698047;83;20455;-76
2022/05/16 05:07:41;;;;;;;;;;;;;;;14.55;100.00;99870.61;1702376;84;20155;-75
2022/05/16 05:15:43;;;;;;;;;;;;;;;14.95;100.00;99893.97;1700946;84;20163;-74
2022/05/16 05:18:10;;;;;;;;;;;;;;;15.19;100.00;99901.27;1700546;84;20142;-68
2022/05/16 05:20:37;;;;;;;;;;;;;;;15.34;100.00;99914.74;1700801;84;20111;-74
2022/05/16 05:23:04;;;;;;;;;;;;;;;15.38;100.00;99924.17;1700946;84;20107;-77
2022/05/16 05:25:31;;;;;;;;;;;;;;;15.51;100.00;99931.53;1700606;83;20123;-75
2022/05/16 05:28:04;;;;;;;;;;;;;;;15.60;100.00;99943.09;1701255;84;20102;-74
2022/05/16 05:30:33;;;;;;;;;;;;;;;15.66;100.00;99943.64;1701197;84;20126;-73
2022/05/16 05:33:00;;;;;;;;;;;;;;;15.78;100.00;99944.74;1672815;86;20117;-73
2022/05/16 05:35:29;;;;;;;;;;;;;;;15.96;100.00;99948.22;1706990;83;20457;-73
2022/05/16 05:37:56;;;;;;;;;;;;;;;16.14;100.00;99948.42;1719268;82;20129;-74
2022/05/16 05:40:24;;;;;;;;;;;;;;;16.23;100.00;99965.42;1718845;82;20420;-74
2022/05/16 05:42:50;;;;;;;;;;;;;;;16.35;100.00;99962.08;1719196;82;20112;-74
2022/05/16 05:45:18;;;;;;;;;;;;;;;16.50;100.00;99960.80;1719014;84;20125;-73
2022/05/16 05:47:46;;;;;;;;;;;;;;;16.70;100.00;99972.22;1719309;82;20155;-74
2022/05/16 05:50:14;;;;;;;;;;;;;;;16.85;100.00;99977.45;1719278;82;20140;-74
2022/05/16 05:52:41;;;;;;;;;;;;;;;16.91;100.00;99982.08;1719312;82;20155;-74
2022/05/16 05:55:08;;;;;;;;;;;;;;;16.92;100.00;99981.01;1720183;81;20246;-76
2022/05/16 05:57:36;;;;;;;;;;;;;;;16.99;100.00;99983.73;1721059;80;20159;-73
2022/05/16 06:00:03;;;;;;;;;;;;;;;17.03;100.00;99983.60;1719596;82;20179;-74
2022/05/16 06:02:31;;;;;;;;;;;;;;;17.15;100.00;99983.78;1718867;82;20183;-72
2022/05/16 06:04:59;;;;;;;;;;;;;;;17.30;100.00;99981.63;1719079;84;20129;-73
2022/05/16 06:07:25;;;;;;;;;;;;;;;17.48;100.00;99988.29;1719369;84;20148;-73
2022/05/16 06:09:54;;;;;;;;;;;;;;;17.52;100.00;99997.72;1720832;82;20132;-76
2022/05/16 06:12:21;;;;;;;;;;;;;;;17.64;100.00;99994.61;1705488;84;20107;-76
2022/05/16 06:14:47;;;;;;;;;;;;;;;17.88;100.00;99993.55;1705369;84;20099;-74
2022/05/16 06:17:16;;;;;;;;;;;;;;;18.15;100.00;99999.66;1699997;84;20113;-77
2022/05/16 06:19:43;;;;;;;;;;;;;;;18.38;100.00;100008.12;1736397;83;20123;-75
2022/05/16 06:22:12;;;;;;;;;;;;;;;18.45;100.00;100018.17;1736441;83;20123;-74
2022/05/16 06:27:28;;;;;;;;;;;;;;;18.51;100.00;100024.14;1737352;83;20124;-75
2022/05/16 06:29:53;;;;;;;;;;;;;;;18.62;100.00;100015.72;1732007;83;20143;-74
2022/05/16 06:32:24;;;;;;;;;;;;;;;18.76;100.00;100022.75;1736395;83;20135;-75
2022/05/16 06:34:52;;;;;;;;;;;;;;;18.87;100.00;100023.39;1736096;83;20203;-74
2022/05/16 06:37:19;;;;;;;;;;;;;;;19.14;100.00;100014.89;1735194;83;20179;-74
2022/05/16 06:39:47;;;;;;;;;;;;;;;19.41;100.00;100015.44;1735777;83;20198;-74
2022/05/16 06:42:14;;;;;;;;;;;;;;;19.51;99.65;100016.25;1735606;83;20176;-74
2022/05/16 06:44:41;;;;;;;;;;;;;;;19.56;93.98;100019.14;1735827;83;20123;-73
2022/05/16 06:47:08;;;;;;;;;;;;;;;19.62;92.78;100013.25;1736117;83;20135;-75
2022/05/16 06:49:35;;;;;;;;;;;;;;;19.79;94.27;100020.35;1735391;83;20167;-75
2022/05/16 06:52:03;;;;;;;;;;;;;;;19.80;87.96;100024.78;1734432;83;20212;-76
2022/05/16 06:54:30;;;;;;;;;;;;;;;19.85;93.61;100018.07;1734582;83;20448;-75
2022/05/16 06:56:57;;;;;;;;;;;;;;;20.05;87.96;100017.77;1734413;83;20240;-73
2022/05/16 06:59:23;;;;;;;;;;;;;;;20.18;86.07;100013.98;1735414;83;20436;-74
2022/05/16 07:01:50;;;;;;;;;;;;;;;20.35;82.94;100012.23;1735129;83;20420;-74
2022/05/16 07:04:18;;;;;;;;;;;;;;;20.53;76.34;100018.16;1735058;83;20135;-74
2022/05/16 07:06:45;;;;;;;;;;;;;;;20.56;77.33;100019.06;1734836;83;20139;-74
2022/05/16 07:09:11;;;;;;;;;;;;;;;20.72;77.60;100025.80;1734510;82;20105;-74
2022/05/16 07:11:40;;;;;;;;;;;;;;;20.87;76.13;100018.43;1731654;83;20101;-75
2022/05/16 07:14:07;;;;;;;;;;;;;;;21.15;75.80;100019.61;1731990;83;20169;-73
2022/05/16 07:16:34;;;;;;;;;;;;;;;21.28;72.95;100024.01;1732058;83;20132;-75
2022/05/16 07:19:01;;;;;;;;;;;;;;;21.23;66.75;100033.00;1732726;83;20164;-75
2022/05/16 07:21:28;;;;;;;;;;;;;;;21.00;65.83;100032.45;1732256;83;20112;-73
2022/05/16 07:23:55;;;;;;;;;;;;;;;20.87;69.60;100034.92;1732822;83;20110;-73
2022/05/16 07:29:07;;;;;;;;;;;;;;;21.19;69.57;100027.66;1732954;83;20413;-74
2022/05/16 07:31:36;;;;;;;;;;;;;;;21.20;67.89;100028.80;1732910;83;20111;-76
2022/05/16 07:34:03;;;;;;;;;;;;;;;21.36;69.53;100033.27;1732684;82;20427;-74
2022/05/16 07:36:30;;;;;;;;;;;;;;;21.38;67.35;100033.31;1732596;82;20132;-75
2022/05/16 07:38:57;;;;;;;;;;;;;;;21.58;67.13;100035.70;1731951;82;20144;-76
2022/05/16 07:41:24;;;;;;;;;;;;;;;21.62;60.59;100041.55;1731538;83;20634;-75
2022/05/16 07:43:51;;;;;;;;;;;;;;;21.36;58.13;100038.22;1731903;82;20167;-75
2022/05/16 07:46:18;;;;;;;;;;;;;;;21.16;59.15;100030.89;1734766;82;20128;-76
2022/05/16 07:48:45;;;;;;;;;;;;;;;21.17;60.54;100036.15;1733857;82;20160;-78
2022/05/16 07:51:12;;;;;;;;;;;;;;;21.22;62.28;100030.77;1732979;82;20151;-76
2022/05/16 07:53:40;;;;;;;;;;;;;;;21.48;62.58;100036.86;1732643;83;20139;-73
2022/05/16 07:56:09;;;;;;;;;;;;;;;21.55;57.84;100041.68;1732704;82;20151;-74
2022/05/16 07:58:36;;;;;;;;;;;;;;;21.15;56.37;100047.11;1732855;82;20136;-75
2022/05/16 08:01:03;;;;;;;;;;;;;;;20.63;58.45;100047.28;1741207;81;20449;-77
2022/05/16 08:03:30;;;;;;;;;;;;;;;20.56;63.30;100042.95;1749067;81;20136;-75
2022/05/16 08:05:57;;;;;;;;;;;;;;;20.93;65.23;100042.23;1737259;81;20192;-75
2022/05/16 08:11:12;;;;;;;;;;;;;;;21.67;61.57;100038.05;1747441;80;20382;-75
2022/05/16 08:13:39;;;;;;;;;;;;;;;21.58;60.42;100037.59;1756378;81;20125;-77
2022/05/16 08:16:06;;;;;;;;;;;;;;;21.37;59.05;100043.17;1765374;81;20128;-75
2022/05/16 08:18:33;;;;;;;;;;;;;;;21.39;59.79;100039.66;1751776;81;20121;-76
2022/05/16 08:21:00;;;;;;;;;;;;;;;21.74;63.65;100036.84;1740854;81;20129;-75
2022/05/16 08:23:29;;;;;;;;;;;;;;;22.31;63.69;100034.62;1745032;81;20136;-75
2022/05/16 08:25:56;;;;;;;;;;;;;;;22.58;57.22;100033.13;1753482;81;20105;-75
2022/05/16 08:28:23;;;;;;;;;;;;;;;22.26;54.09;100039.17;1752060;81;20148;-74
2022/05/16 08:30:50;;;;;;;;;;;;;;;21.82;54.61;100041.66;1743592;81;20111;-77
2022/05/16 08:33:17;;;;;;;;;;;;;;;21.76;56.07;100033.82;1751903;81;20148;-72
2022/05/16 08:35:44;;;;;;;;;;;;;;;21.92;57.39;100039.94;1749549;81;20409;-74
2022/05/16 08:41:06;;;;;;;;;;;;;;;21.58;59.27;100043.09;1743945;81;20104;-74
2022/05/16 08:43:50;;;;;;;;;;;;;;;21.63;58.95;100039.63;1709297;83;20488;-74
2022/05/16 08:46:42;;;;;;;;;;;;;;;21.75;58.16;100031.62;1713564;83;20416;-74
2022/05/16 08:49:13;;;;;;;;;;;;;;;21.97;58.32;100032.30;1728889;83;20127;-74
2022/05/16 08:51:41;;;;;;;;;;;;;;;21.93;57.43;100032.50;1729011;83;20130;-74
2022/05/16 08:54:29;;;;;;;;;;;;;;;21.37;56.99;100037.16;1728962;83;20123;-77
2022/05/16 08:56:57;;;;;;;;;;;;;;;20.84;58.77;100043.63;1644778;86;20449;-74
2022/05/16 08:59:25;;;;;;;;;;;;;;;20.37;58.84;100043.02;1644204;87;20121;-76
2022/05/16 09:01:53;;;;;;;;;;;;;;;20.18;60.87;100035.94;1643406;86;20450;-74
2022/05/16 09:04:26;;;;;;;;;;;;;;;20.48;61.90;100034.50;1643554;86;20109;-76
2022/05/16 09:07:01;;;;;;;;;;;;;;;20.86;60.87;100029.97;1618854;87;22077;-75
2022/05/16 09:09:53;;;;;;;;;;;;;;;21.04;58.32;100039.17;1644262;87;20102;-75
2022/05/16 09:12:49;;;;;;;;;;;;;;;20.88;59.31;100042.11;1608938;88;20145;-76
2022/05/16 09:15:30;;;;;;;;;;;;;;;20.53;61.50;100037.37;1634326;87;20117;-75
2022/05/16 09:18:24;;;;;;;;;;;;;;;20.12;63.16;100040.46;1631021;86;20155;-76
2022/05/16 09:21:16;;;;;;;;;;;;;;;19.88;65.99;100045.02;1631947;87;20121;-76
2022/05/16 09:24:11;;;;;;;;;;;;;;;20.20;67.20;100026.41;1632127;87;20140;-76
2022/05/16 09:26:53;;;;;;;;;;;;;;;20.73;63.98;100038.44;1637445;87;20130;-75
2022/05/16 09:29:26;;;;;;;;;;;;;;;21.28;63.88;100030.33;1625730;87;20143;-74
2022/05/16 09:31:56;;;;;;;;;;;;;;;21.68;61.14;100035.60;1631613;87;20567;-74
2022/05/16 09:34:23;;;;;;;;;;;;;;;21.95;59.22;100027.03;1635446;87;20406;-75
2022/05/16 09:36:50;;;;;;;;;;;;;;;22.27;58.53;100025.71;1636918;86;20137;-74
2022/05/16 09:39:23;;;;;;;;;;;;;;;22.50;57.69;100014.53;1635325;86;20113;-76
2022/05/16 09:41:56;;;;;;;;;;;;;;;22.82;57.76;100025.50;1662945;86;20186;-76
2022/05/16 09:44:28;;;;;;;;;;;;;;;23.06;57.00;100018.72;1635303;86;20141;-75
2022/05/16 09:47:21;;;;;;;;;;;;;;;23.30;55.18;100017.95;1654159;86;20155;-76
2022/05/16 09:50:09;;;;;;;;;;;;;;;23.34;53.63;100017.42;1635642;86;20117;-73
2022/05/16 09:52:42;;;;;;;;;;;;;;;23.30;55.16;100022.09;1661112;82;20107;-77
2022/05/16 09:55:11;;;;;;;;;;;;;;;23.22;53.43;100018.94;1673171;84;20108;-78
2022/05/16 09:57:47;;;;;;;;;;;;;;;22.78;51.45;100023.79;1660590;86;20115;-76
2022/05/16 10:00:17;;;;;;;;;;;;;;;22.25;52.58;100012.70;1659235;86;20212;-78
2022/05/16 10:02:45;;;;;;;;;;;;;;;22.07;54.82;100019.28;1664089;86;20185;-77
2022/05/16 10:05:26;;;;;;;;;;;;;;;22.12;53.84;100019.38;1660895;86;20124;-74
2022/05/16 10:08:05;;;;;;;;;;;;;;;22.09;53.96;100008.84;1663257;86;20280;-77
2022/05/16 10:10:36;;;;;;;;;;;;;;;21.98;55.78;100014.71;1632386;86;20248;-72
2022/05/16 10:13:04;;;;;;;;;;;;;;;22.20;55.50;100016.20;1649022;86;20149;-76
2022/05/16 10:15:32;;;;;;;;;;;;;;;22.45;52.59;100013.09;1642500;86;20446;-77
2022/05/16 10:18:00;;;;;;;;;;;;;;;22.27;49.80;100011.94;1660076;86;20117;-75
2022/05/16 10:20:33;;;;;;;;;;;;;;;21.79;51.77;100016.83;1667089;86;20092;-76
2022/05/16 10:23:02;;;;;;;;;;;;;;;21.53;53.73;100012.21;1658703;86;20149;-76
2022/05/16 10:25:38;;;;;;;;;;;;;;;21.48;54.78;100006.60;1677213;86;20141;-78
2022/05/16 10:28:08;;;;;;;;;;;;;;;21.69;54.85;100002.86;1620265;89;20126;-76
2022/05/16 10:33:24;;;;;;;;;;;;;;;22.13;55.25;100002.61;1602198;89;20173;-77
2022/05/16 10:35:56;;;;;;;;;;;;;;;22.82;49.68;100001.52;1594499;90;20110;-76
2022/05/16 10:38:35;;;;;;;;;;;;;;;22.79;48.87;99998.43;1594665;90;20268;-77
2022/05/16 10:41:03;;;;;;;;;;;;;;;22.61;46.64;99996.27;1594495;90;20426;-76
2022/05/16 10:43:39;;;;;;;;;;;;;;;22.56;47.25;99993.42;1595411;90;20118;-76
2022/05/16 10:46:11;;;;;;;;;;;;;;;22.78;46.39;99991.27;1595301;90;20113;-74
2022/05/16 10:48:45;;;;;;;;;;;;;;;22.78;42.55;99992.09;1595033;89;20106;-72
2022/05/16 10:51:34;;;;;;;;;;;;;;;22.50;41.20;99991.66;1555765;91;20098;-77
2022/05/16 10:54:13;;;;;;;;;;;;;;;22.33;41.88;99984.24;1556693;92;20125;-76
2022/05/16 10:56:43;;;;;;;;;;;;;;;22.59;42.20;99987.94;1554767;92;20145;-75
2022/05/16 10:59:37;;;;;;;;;;;;;;;22.94;42.53;100005.55;1554376;91;20118;-75
2022/05/16 11:02:16;;;;;;;;;;;;;;;23.31;40.94;99996.16;1542653;92;20162;-74
2022/05/16 11:05:21;;;;;;;;;;;;;;;23.47;36.54;100006.02;1556279;92;20152;-75
2022/05/16 11:08:09;;;;;;;;;;;;;;;23.26;38.04;99997.47;1562530;92;20157;-75
2022/05/16 11:10:39;;;;;;;;;;;;;;;23.39;36.84;99989.38;1561518;90;20122;-73
2022/05/16 11:13:25;;;;;;;;;;;;;;;23.34;35.73;100002.25;1512146;94;20181;-77
2022/05/16 11:15:56;;;;;;;;;;;;;;;23.25;37.46;99993.61;1526255;93;20176;-73
2022/05/16 11:18:46;;;;;;;;;;;;;;;23.34;36.44;99990.69;1527371;93;20157;-77
2022/05/16 11:21:22;;;;;;;;;;;;;;;23.50;37.63;99995.84;1555531;91;20134;-75
2022/05/16 11:24:15;;;;;;;;;;;;;;;23.56;36.73;100000.32;1547922;90;20183;-72
2022/05/16 11:27:09;;;;;;;;;;;;;;;23.34;37.04;100000.87;1607929;88;20142;-73
2022/05/16 11:30:16;;;;;;;;;;;;;;;23.25;37.28;99998.58;1625251;88;20122;-72
2022/05/16 11:33:01;;;;;;;;;;;;;;;23.35;36.46;99996.48;1592602;90;20190;-75
2022/05/16 11:35:37;;;;;;;;;;;;;;;23.18;37.14;100006.20;1573639;91;20102;-74
2022/05/16 11:38:10;;;;;;;;;;;;;;;23.18;37.61;99992.94;1573477;91;20441;-76
2022/05/16 11:41:11;;;;;;;;;;;;;;;23.11;38.03;99986.26;1573874;91;20126;-73
2022/05/16 11:43:43;;;;;;;;;;;;;;;23.05;38.78;99987.27;1563074;91;20153;-68
2022/05/16 11:46:31;;;;;;;;;;;;;;;22.84;38.12;99986.11;1511221;94;20129;-70
2022/05/16 11:49:16;;;;;;;;;;;;;;;22.36;38.03;99981.00;1503586;95;20163;-70
2022/05/16 11:52:07;;;;;;;;;;;;;;;22.16;39.58;99977.86;1485982;96;20212;-69
2022/05/16 11:54:39;;;;;;;;;;;;;;;22.37;38.58;99985.41;1559615;91;20114;-69
2022/05/16 12:03:11;;;;;;;;;;;;;;;23.21;39.28;99973.13;1546303;93;20161;-71
2022/05/16 12:05:40;;;;;;;;;;;;;;;23.52;37.94;99966.06;1546913;93;20144;-75
2022/05/16 12:08:17;;;;;;;;;;;;;;;23.66;37.38;99976.98;1546219;91;20129;-75
2022/05/16 12:11:23;;;;;;;;;;;;;;;23.62;37.38;99980.51;1472107;95;20128;-76
2022/05/16 12:14:14;;;;;;;;;;;;;;;23.52;37.97;99970.20;1465503;98;20142;-78
2022/05/16 12:16:57;;;;;;;;;;;;;;;23.59;38.31;99961.17;1483636;95;20158;-75
2022/05/16 12:19:26;;;;;;;;;;;;;;;23.48;38.11;99962.98;1503587;93;20152;-75
2022/05/16 12:21:59;;;;;;;;;;;;;;;23.61;39.35;99962.30;1516447;95;20166;-73
2022/05/16 12:24:28;;;;;;;;;;;;;;;23.49;36.65;99960.50;1492755;95;20125;-71
2022/05/16 12:27:04;;;;;;;;;;;;;;;23.04;37.60;99958.01;1492182;96;20134;-73
2022/05/16 12:29:47;;;;;;;;;;;;;;;22.70;36.86;99957.55;1492262;96;20159;-74
2022/05/16 12:32:25;;;;;;;;;;;;;;;22.27;37.28;99956.31;1433299;100;20168;-73
2022/05/16 12:34:52;;;;;;;;;;;;;;;21.81;38.38;99954.11;1471459;96;20136;-72
2022/05/16 12:37:19;;;;;;;;;;;;;;;21.74;39.62;99952.05;1468271;96;20128;-72
2022/05/16 12:40:17;;;;;;;;;;;;;;;21.99;39.86;99958.03;1468040;98;20124;-73
2022/05/16 12:43:13;;;;;;;;;;;;;;;22.26;39.52;99955.17;1482910;96;20178;-74
2022/05/16 12:46:06;;;;;;;;;;;;;;;22.23;38.88;99948.23;1503357;96;20152;-73
2022/05/16 12:49:08;;;;;;;;;;;;;;;21.96;40.20;99951.64;1500979;94;20155;-74
2022/05/16 12:51:51;;;;;;;;;;;;;;;21.88;40.82;99953.96;1547443;93;20157;-74
2022/05/16 12:54:39;;;;;;;;;;;;;;;21.75;42.55;99953.19;1550119;91;20149;-74
2022/05/16 12:57:33;;;;;;;;;;;;;;;21.49;41.23;99950.48;1549600;93;20162;-75
2022/05/16 13:00:19;;;;;;;;;;;;;;;21.02;41.14;99947.87;1549577;93;20173;-75
2022/05/16 13:02:50;;;;;;;;;;;;;;;20.99;42.33;99935.98;1537214;92;20117;-73
2022/05/16 13:05:45;;;;;;;;;;;;;;;21.20;42.80;99938.62;1534072;93;20164;-74
2022/05/16 13:08:24;;;;;;;;;;;;;;;21.34;41.55;99940.00;1536917;94;20228;-73
2022/05/16 13:11:11;;;;;;;;;;;;;;;21.27;40.29;99937.11;1540385;93;20141;-74
2022/05/16 13:14:03;;;;;;;;;;;;;;;21.02;40.90;99932.20;1550966;91;20132;-74
2022/05/16 13:16:38;;;;;;;;;;;;;;;21.20;40.89;99933.95;1571076;91;20187;-76
2022/05/16 13:19:11;;;;;;;;;;;;;;;21.59;39.29;99930.06;1572042;91;20175;-74
2022/05/16 13:21:44;;;;;;;;;;;;;;;21.78;38.66;99927.94;1585970;90;20137;-75
2022/05/16 13:24:13;;;;;;;;;;;;;;;22.01;38.12;99923.38;1596026;90;20141;-74
2022/05/16 13:29:33;;;;;;;;;;;;;;;22.09;36.91;99916.61;1648369;86;20119;-74
2022/05/16 13:31:59;;;;;;;;;;;;;;;22.14;37.13;99918.08;1651515;86;20140;-72
2022/05/16 13:34:33;;;;;;;;;;;;;;;22.25;36.84;99913.02;1679816;84;20089;-75
2022/05/16 13:37:00;;;;;;;;;;;;;;;22.28;36.24;99916.68;1679623;86;20177;-73
2022/05/16 13:39:29;;;;;;;;;;;;;;;22.27;36.41;99909.49;1722199;83;20108;-74